D/T METAR WX W/DIR W/SPE G/SPE TEMP DEWP
15/01/19 16:50 EGHE 151650Z 21017KT 9999 SCT008 BKN036 10/08 Q1018 SSW (210°) 19.6mph 10°C 8°C
15/01/19 16:20 EGHE 151620Z 20015KT 9999 FEW005 BKN030 10/09 Q1018 SSW (200°) 17.3mph 10°C 9°C
15/01/19 15:50 EGHE 151550Z 21018KT 9999 FEW006 BKN018 10/08 Q1018 SSW (210°) 20.7mph 10°C 8°C
15/01/19 15:20 EGHE 151520Z 21016KT 9999 FEW009 SCT015 BKN020 10/09 Q1019 SSW (210°) 18.4mph 10°C 9°C
15/01/19 14:50 EGHE 151450Z 22017KT 9999 FEW006 SCT018 10/09 Q1019 SW (220°) 19.6mph 10°C 9°C
15/01/19 14:20 EGHE 151420Z 22016KT 9999 FEW006 SCT012 10/09 Q1019 SW (220°) 18.4mph 10°C 9°C
15/01/19 13:50 EGHE 151350Z 22016KT 9999 FEW004 SCT010 BKN024 09/09 Q1020 SW (220°) 18.4mph 9°C 9°C
15/01/19 13:20 EGHE 151320Z 22017KT 9000 3500SW -RA FEW008 SCT014 BKN026 10/08 Q1020 -RA SW (220°) 19.6mph 10°C 8°C
15/01/19 12:20 EGHE 151220Z 21013KT 9999 FEW012 BKN029 10/08 Q1021 SSW (210°) 15.0mph 10°C 8°C
15/01/19 11:50 EGHE 151150Z 21018KT 9999 FEW011 BKN029 10/08 Q1021 SSW (210°) 20.7mph 10°C 8°C
15/01/19 11:20 EGHE 151120Z 23011KT 9999 FEW016 BKN026 10/07 Q1022 SW (230°) 12.7mph 10°C 7°C
15/01/19 10:50 EGHE 151050Z 22011KT 9999 FEW014 BKN024 10/07 Q1022 SW (220°) 12.7mph 10°C 7°C
15/01/19 09:50 EGHE 150950Z 23012KT 9999 FEW009 BKN019 10/06 Q1023 SW (230°) 13.8mph 10°C 6°C
15/01/19 09:20 EGHE 150920Z 23009KT 9999 FEW009 BKN019 10/06 Q1023 SW (230°) 10.4mph 10°C 6°C
15/01/19 08:50 EGHE 150850Z 23010KT 9999 FEW009 BKN019 09/07 Q1023 SW (230°) 11.5mph 9°C 7°C
15/01/19 08:20 EGHE 150820Z 25011KT 9999 FEW09 BKN023 09/07 Q1023 WSW (250°) 12.7mph 9°C 7°C
15/01/19 07:20 EGHE 150720Z 23009KT 9999 FEW09 BKN018 09/07 Q1023 SW (230°) 10.4mph 9°C 7°C
14/01/19 17:20 EGHE 141720Z 33007KT 9999 BKN027 09/04 Q1026 NNW (330°) 8.1mph 9°C 4°C
14/01/19 16:20 EGHE 141620Z 34008KT 9999 BKN028 10/04 Q1026 NNW (340°) 9.2mph 10°C 4°C
14/01/19 15:50 EGHE 141550Z 34007KT 9999 BKN028 10/04 Q1026 NNW (340°) 8.1mph 10°C 4°C
14/01/19 15:20 EGHE 141520Z 34009KT 9999 BKN031 10/04 Q1026 NNW (340°) 10.4mph 10°C 4°C
14/01/19 14:50 EGHE 141450Z 33011KT 9999 BKN030 10/04 Q1026 NNW (330°) 12.7mph 10°C 4°C
14/01/19 13:50 EGHE 141350Z 31009KT 9999 BKN028 10/04 Q1026 NW (310°) 10.4mph 10°C 4°C
14/01/19 13:20 EGHE 141320Z 32008KT 9999 BKN027 10/04 Q1026 NW (320°) 9.2mph 10°C 4°C
14/01/19 12:50 EGHE 141250Z 33009KT 9999 BKN029 10/05 Q1026 NNW (330°) 10.4mph 10°C 5°C
14/01/19 12:20 EGHE 141220Z 32009KT 9999 BKN027 10/05 Q1026 NW (320°) 10.4mph 10°C 5°C
14/01/19 11:50 EGHE 141150Z 35008KT 9999 BKN030 10/04 Q1026 N (350°) 9.2mph 10°C 4°C
14/01/19 11:20 EGHE 141120Z 34009KT 9999 BKN032 10/04 Q1027 NNW (340°) 10.4mph 10°C 4°C
14/01/19 10:20 EGHE 141020Z 35009KT 9999 BKN031 10/04 Q1026 N (350°) 10.4mph 10°C 4°C
14/01/19 09:50 EGHE 140950Z 34011KT 9999 BKN033 09/04 Q1026 NNW (340°) 12.7mph 9°C 4°C
14/01/19 09:20 EGHE 140920Z 33012KT 9999 BKN031 10/04 Q1026 NNW (330°) 13.8mph 10°C 4°C
14/01/19 08:50 EGHE 140850Z 36011KT 9999 BKN032 10/04 Q1026 N (360°) 12.7mph 10°C 4°C
14/01/19 08:20 EGHE 140820Z 35013KT 9999 BKN031 10/04 Q1026 N (350°) 15.0mph 10°C 4°C
14/01/19 07:50 EGHE 140750Z 33013KT 9999 BKN033 09/03 Q1026 NNW (330°) 15.0mph 9°C 3°C
14/01/19 07:20 EGHE 140720Z 34011KT 9999 BKN030 10/04 Q1025 NNW (340°) 12.7mph 10°C 4°C
12/01/19 11:50 EGHE 121150Z 29021KT 9999 SCT006 BKN020 10/10 Q1030 WNW (290°) 24.2mph 10°C 10°C
12/01/19 11:20 EGHE 121120Z 29016KT 9999 SCT009 BKN019 11/10 Q1030 WNW (290°) 18.4mph 11°C 10°C
12/01/19 10:50 EGHE 121050Z 29017KT 9999 SCT007 BKN018 10/10 Q1031 WNW (290°) 19.6mph 10°C 10°C
12/01/19 10:20 EGHE 121020Z 29017KT 9999 SCT006 BKN012 10/10 Q1031 WNW (290°) 19.6mph 10°C 10°C
12/01/19 09:50 EGHE 120950Z 29017KT 9999 SCT007 BKN009 10/10 Q1031 WNW (290°) 19.6mph 10°C 10°C
12/01/19 08:50 EGHE 120850Z 29018KT 9999 SCT007 BKN010 10/09 Q1031 WNW (290°) 20.7mph 10°C 9°C
11/01/19 16:50 EGHE 111650Z 33010KT 9999 FEW020 BKN047 11/07 Q1034 NNW (330°) 11.5mph 11°C 7°C
11/01/19 16:20 EGHE 111620Z 33010KT 9999 FEW024 BKN046 11/07 Q1034 NNW (330°) 11.5mph 11°C 7°C
11/01/19 15:50 EGHE 111550Z 33009KT 9999 FEW024 BKN048 11/05 Q1035 NNW (330°) 10.4mph 11°C 5°C
11/01/19 15:20 EGHE 111520Z 34011KT 9999 FEW025 BKN049 11/04 Q1034 NNW (340°) 12.7mph 11°C 4°C
11/01/19 14:50 EGHE 111450Z 34011KT 9999 FEW027 BKN048 11/06 Q1034 NNW (340°) 12.7mph 11°C 6°C
11/01/19 14:20 EGHE 111420Z 34011KT 9999 FEW027 BKN048 11/06 Q1034 NNW (340°) 12.7mph 11°C 6°C
11/01/19 13:50 EGHE 111350Z 34012KT 9999 FEW027 BKN048 11/06 Q1034 NNW (340°) 13.8mph 11°C 6°C
11/01/19 13:20 EGHE 111320Z 34011KT 9999 FEW027 BKN048 11/06 Q1034 NNW (340°) 12.7mph 11°C 6°C
11/01/19 12:50 EGHE 111250Z 34012KT 9999 FEW027 BKN048 11/06 Q1034 NNW (340°) 13.8mph 11°C 6°C
11/01/19 12:20 EGHE 111220Z 34012KT 9999 FEW027 BKN048 11/06 Q1035 NNW (340°) 13.8mph 11°C 6°C
11/01/19 11:50 EGHE 111150Z 34011KT 9999 FEW027 BKN048 11/06 Q1035 NNW (340°) 12.7mph 11°C 6°C
11/01/19 11:20 EGHE 111120Z 34010KT 9999 FEW027 BKN047 11/06 Q1035 NNW (340°) 11.5mph 11°C 6°C
11/01/19 10:50 EGHE 111050Z 35010KT 9999 FEW027 BKN047 11/05 Q1035 N (350°) 11.5mph 11°C 5°C
11/01/19 10:20 EGHE 111020Z 35009KT 9999 FEW027 BKN047 11/05 Q1035 N (350°) 10.4mph 11°C 5°C
11/01/19 09:50 EGHE 110950Z 36010KT 9999 FEW027 BKN048 11/05 Q1035 N (360°) 11.5mph 11°C 5°C
11/01/19 09:20 EGHE 110920Z 35010KT 9999 FEW027 BKN048 11/05 Q1034 N (350°) 11.5mph 11°C 5°C
11/01/19 08:50 EGHE 110850Z 35011KT 9999 FEW025 BKN048 11/05 Q1034 N (350°) 12.7mph 11°C 5°C
11/01/19 08:20 EGHE 110820Z 34011KT 9999 FEW025 BKN049 10/05 Q1034 NNW (340°) 12.7mph 10°C 5°C
11/01/19 07:50 EGHE 110750Z 34010KT 9999 FEW038 BKN049 10/07 Q1034 NNW (340°) 11.5mph 10°C 7°C
11/01/19 07:20 EGHE 110720Z 34009KT 9999 FEW038 BKN049 10/07 Q1034 NNW (340°) 10.4mph 10°C 7°C
10/01/19 16:50 EGHE 101650Z 35004KT 9999 FEW008 BKN019 09/06 Q1032 N (350°) 4.6mph 9°C 6°C
10/01/19 16:20 EGHE 101620Z 35003KT 9999 FEW008 BKN019 09/06 Q1033 N (350°) 3.5mph 9°C 6°C
10/01/19 15:50 EGHE 101550Z 02004KT 320V030 9999 FEW008 BKN020 09/05 Q1032 NNE (20°) 4.6mph 9°C 5°C
10/01/19 15:20 EGHE 101520Z 03003KT 9999 BKN022 09/05 Q1032 NNE (30°) 3.5mph 9°C 5°C
10/01/19 14:50 EGHE 101450Z 04003KT 9999 BKN023 09/05 Q1033 NE (40°) 3.5mph 9°C 5°C
10/01/19 14:20 EGHE 101420Z 02003KT 9999 FEW018 BKN020 09/05 Q1033 NNE (20°) 3.5mph 9°C 5°C
10/01/19 13:50 EGHE 101350Z 01004KT 9999 FEW018 BKN022 09/05 Q1032 N (10°) 4.6mph 9°C 5°C
10/01/19 13:20 EGHE 101320Z 02003KT 9999 FEW018 BKN022 09/05 Q1032 NNE (20°) 3.5mph 9°C 5°C
10/01/19 12:50 EGHE 101250Z 01004KT 9999 FEW022 09/05 Q1033 N (10°) 4.6mph 9°C 5°C
10/01/19 12:20 EGHE 101220Z 04003KT 9999 SCT025 09/04 Q1033 NE (40°) 3.5mph 9°C 4°C
10/01/19 11:50 EGHE 101150Z VRB02KT 9999 SCT023 09/04 Q1033 N (0°) 2.3mph 9°C 4°C
10/01/19 11:20 EGHE 101120Z 32004KT 9999 SCT023 08/04 Q1033 NW (320°) 4.6mph 8°C 4°C
10/01/19 10:50 EGHE 101050Z 31002KT 9999 FEW035 08/04 Q1033 NW (310°) 2.3mph 8°C 4°C
10/01/19 10:20 EGHE 101020Z 31003KT 9999 FEW016 07/03 Q1033 NW (310°) 3.5mph 7°C 3°C
10/01/19 09:50 EGHE 100950Z 32002KT 9999 FEW018 06/03 Q1033 NW (320°) 2.3mph 6°C 3°C
10/01/19 08:50 EGHE 100850Z 05002KT 9999 FEW016 06/03 Q1033 NE (50°) 2.3mph 6°C 3°C
10/01/19 08:20 EGHE 100820Z 07003KT 9999 FEW018 06/03 Q1033 ENE (70°) 3.5mph 6°C 3°C
10/01/19 07:20 EGHE 100720Z 08005KT 9999 FEW016 06/03 Q1032 E (80°) 5.8mph 6°C 3°C
9/01/19 17:20 EGHE 091720Z 01008KT 9999 SCT022 SCT028 09/05 Q1031 N (10°) 9.2mph 9°C 5°C
9/01/19 16:50 EGHE 091650Z 01008KT 9999 SCT022 SCT028 09/05 Q1031 N (10°) 9.2mph 9°C 5°C
9/01/19 16:20 EGHE 091620Z 02010KT 9999 FEW025 09/04 Q1031 NNE (20°) 11.5mph 9°C 4°C
9/01/19 15:50 EGHE 091550Z 02010KT 9999 FEW025 09/04 Q1032 NNE (20°) 11.5mph 9°C 4°C
9/01/19 15:20 EGHE 091520Z 01009KT 9999 FEW024 10/05 Q1032 N (10°) 10.4mph 10°C 5°C
9/01/19 14:20 EGHE 091420Z 36009KT 9999 FEW026 10/04 Q1031 N (360°) 10.4mph 10°C 4°C
9/01/19 13:50 EGHE 091350Z 02010KT 9999 FEW026 10/05 Q1032 NNE (20°) 11.5mph 10°C 5°C
9/01/19 13:20 EGHE 091320Z 02011KT 9999 FEW024 10/05 Q1032 NNE (20°) 12.7mph 10°C 5°C
9/01/19 12:50 EGHE 091250Z 02011KT 9999 FEW020 10/05 Q1032 NNE (20°) 12.7mph 10°C 5°C
9/01/19 12:20 EGHE 091220Z 02011KT 9999 FEW020 09/04 Q1033 NNE (20°) 12.7mph 9°C 4°C
9/01/19 11:50 EGHE 091150Z 02011KT 9999 FEW020 10/05 Q1033 NNE (20°) 12.7mph 10°C 5°C
9/01/19 11:20 EGHE 091120Z 02012KT 9999 FEW020 10/04 Q1033 NNE (20°) 13.8mph 10°C 4°C
9/01/19 10:50 EGHE 091050Z 02012KT 9999 FEW019 10/05 Q1033 NNE (20°) 13.8mph 10°C 5°C
9/01/19 10:20 EGHE 091020Z 01010KT 9999 FEW018 09/05 Q1033 N (10°) 11.5mph 9°C 5°C
9/01/19 09:50 EGHE 090950Z 01011KT 9999 FEW018 SCT023 09/05 Q1033 N (10°) 12.7mph 9°C 5°C
9/01/19 09:20 EGHE 090920Z 01010KT 9999 SCT018 09/05 Q1033 N (10°) 11.5mph 9°C 5°C
9/01/19 08:50 EGHE 090850Z 01009KT 9999 FEW018 09/05 Q1033 N (10°) 10.4mph 9°C 5°C
9/01/19 08:20 EGHE 090820Z 01010KT 9999 FEW018 09/05 Q1033 N (10°) 11.5mph 9°C 5°C
9/01/19 07:50 EGHE 090750Z 01011KT 9999 FEW018 09/05 Q1033 N (10°) 12.7mph 9°C 5°C
9/01/19 07:20 EGHE 090720Z 36010KT 9999 FEW018 09/05 Q1033 N (360°) 11.5mph 9°C 5°C
8/01/19 16:50 EGHE 081650Z 35011KT 9999 FEW015 SCT019 09/05 Q1033 N (350°) 12.7mph 9°C 5°C
8/01/19 16:20 EGHE 081620Z 35012KT 9999 FEW015 09/06 Q1033 N (350°) 13.8mph 9°C 6°C
8/01/19 15:50 EGHE 081550Z 35011KT 9999 FEW015 09/06 Q1033 N (350°) 12.7mph 9°C 6°C
8/01/19 15:20 EGHE 081520Z 36012KT 9999 FEW011 SCT015 10/06 Q1033 N (360°) 13.8mph 10°C 6°C
8/01/19 14:50 EGHE 081450Z 35013KT 9999 FEW011 SCT015 10/06 Q1033 N (350°) 15.0mph 10°C 6°C
8/01/19 14:20 EGHE 081420Z 36011KT 9999 SCT015 10/07 Q1033 N (360°) 12.7mph 10°C 7°C
8/01/19 13:50 EGHE 081350Z 36013KT 9999 FEW015 10/06 Q1033 N (360°) 15.0mph 10°C 6°C
8/01/19 13:20 EGHE 081320Z 36012KT 9999 FEW015 10/06 Q1033 N (360°) 13.8mph 10°C 6°C
8/01/19 12:20 EGHE 081220Z 36013KT 9999 FEW014 10/06 Q1034 N (360°) 15.0mph 10°C 6°C
8/01/19 11:50 EGHE 081150Z 36012KT 9999 FEW012 10/06 Q1034 N (360°) 13.8mph 10°C 6°C
8/01/19 10:50 EGHE 081050Z 36013KT 9999 FEW012 10/06 Q1034 N (360°) 15.0mph 10°C 6°C
8/01/19 10:20 EGHE 081020Z 36013KT 9999 FEW012 10/06 Q1034 N (360°) 15.0mph 10°C 6°C
8/01/19 09:50 EGHE 080950Z 35011KT 9999 FEW011 BKN047 10/07 Q1034 N (350°) 12.7mph 10°C 7°C
8/01/19 08:50 EGHE 080850Z 35011KT 9999 FEW010 BKN020 10/07 Q1034 N (350°) 12.7mph 10°C 7°C
8/01/19 07:50 EGHE 080750Z 35012KT 9999 FEW005 SCT010 BKN022 10/10 Q1034 N (350°) 13.8mph 10°C 10°C
8/01/19 07:20 EGHE 080720Z 34012KT 9999 FEW005 BKN013 11/11 Q1033 NNW (340°) 13.8mph 11°C 11°C
7/01/19 16:50 EGHE 071650Z 27016KT 9999 FEW014 10/07 Q1036 W (270°) 18.4mph 10°C 7°C
7/01/19 16:20 EGHE 071620Z 26015KT 9999 FEW014 SCT030 11/08 Q1036 W (260°) 17.3mph 11°C 8°C
7/01/19 15:50 EGHE 071550Z 26015KT 9999 FEW014 SCT029 11/08 Q1036 W (260°) 17.3mph 11°C 8°C
7/01/19 15:20 EGHE 071520Z 26016KT 9999 FEW014 11/08 Q1036 W (260°) 18.4mph 11°C 8°C
7/01/19 14:50 EGHE 071450Z 26016KT 9999 FEW014 11/08 Q1036 W (260°) 18.4mph 11°C 8°C
7/01/19 14:20 EGHE 071420Z 26016KT 9999 SCT016 11/08 Q1036 W (260°) 18.4mph 11°C 8°C
7/01/19 13:50 EGHE 071350Z 26015KT 9999 FEW016 SCT019 12/09 Q1037 W (260°) 17.3mph 12°C 9°C
7/01/19 13:20 EGHE 071320Z 25015KT 9999 FEW017 SCT020 11/08 Q1037 WSW (250°) 17.3mph 11°C 8°C
7/01/19 12:50 EGHE 071250Z 25015KT 9999 FEW014 11/08 Q1037 WSW (250°) 17.3mph 11°C 8°C
7/01/19 12:20 EGHE 071220Z 25015KT 9999 FEW016 11/08 Q1037 WSW (250°) 17.3mph 11°C 8°C
7/01/19 11:50 EGHE 071150Z 25015KT 9999 FEW012 11/08 Q1038 WSW (250°) 17.3mph 11°C 8°C
7/01/19 11:20 EGHE 071120Z 26015KT 9999 FEW012 11/07 Q1038 W (260°) 17.3mph 11°C 7°C
7/01/19 10:20 EGHE 071020Z 25013KT 9999 FEW012 SCT029 10/07 Q1038 WSW (250°) 15.0mph 10°C 7°C
7/01/19 09:50 EGHE 070950Z 26016KT 9999 FEW012 BKN029 10/07 Q1038 W (260°) 18.4mph 10°C 7°C
7/01/19 09:20 EGHE 070920Z 26014KT 9999 FEW012 BKN029 11/07 Q1038 W (260°) 16.1mph 11°C 7°C
7/01/19 08:50 EGHE 070850Z 26014KT 9999 FEW018 BKN029 10/07 Q1038 W (260°) 16.1mph 10°C 7°C
7/01/19 08:20 EGHE 070820Z 27014KT 9999 FEW018 BKN029 10/07 Q1038 W (270°) 16.1mph 10°C 7°C
7/01/19 07:50 EGHE 070750Z 26014KT 9999 FEW018 BKN029 10/07 Q1038 W (260°) 16.1mph 10°C 7°C
5/01/19 11:50 EGHE 051150Z 19011KT 9999 BKN023 08/04 Q1040 S (190°) 12.7mph 8°C 4°C
5/01/19 11:20 EGHE 051120Z 18011KT 9999 BKN023 08/04 Q1040 S (180°) 12.7mph 8°C 4°C
5/01/19 10:50 EGHE 051050Z 17010KT 9999 BKN023 08/04 Q1040 S (170°) 11.5mph 8°C 4°C
5/01/19 10:20 EGHE 051020Z 19012KT 9999 BKN024 08/04 Q1040 S (190°) 13.8mph 8°C 4°C
5/01/19 09:50 EGHE 050950Z 19008KT 9999 BKN023 08/03 Q1040 S (190°) 9.2mph 8°C 3°C
5/01/19 09:20 EGHE 050920Z 19010KT 9999 BKN024 08/03 Q1040 S (190°) 11.5mph 8°C 3°C
5/01/19 08:50 EGHE 050850Z 19011KT 9999 BKN023 08/04 Q1040 S (190°) 12.7mph 8°C 4°C
5/01/19 08:20 EGHE 050820Z 18010KT 9999 BKN024 08/04 Q1040 S (180°) 11.5mph 8°C 4°C
5/01/19 07:50 EGHE 050750Z 17008KT 9999 BKN024 08/04 Q1039 S (170°) 9.2mph 8°C 4°C
5/01/19 07:20 EGHE 050720Z 17008KT 9999 BKN024 08/04 Q1039 S (170°) 9.2mph 8°C 4°C
4/01/19 16:50 EGHE 041650Z 13012KT 9999 BKN025 08/03 Q1040 SE (130°) 13.8mph 8°C 3°C